sensor_id;sensor_type;location;lat;lon;timestamp;temperature;humidity
1367;DHT22;16877;48.810;9.282;2024-03-02T00:00:38;17.00;65.50
1367;DHT22;16877;48.810;9.282;2024-03-02T00:03:07;16.90;65.30
1367;DHT22;16877;48.810;9.282;2024-03-02T00:05:36;16.90;65.40
1367;DHT22;16877;48.810;9.282;2024-03-02T00:08:05;16.80;64.60
1367;DHT22;16877;48.810;9.282;2024-03-02T00:10:37;17.00;64.60
1367;DHT22;16877;48.810;9.282;2024-03-02T00:13:05;16.90;64.70
1367;DHT22;16877;48.810;9.282;2024-03-02T00:15:40;16.90;65.20
1367;DHT22;16877;48.810;9.282;2024-03-02T00:18:09;17.10;65.90
1367;DHT22;16877;48.810;9.282;2024-03-02T00:20:38;17.30;66.40
1367;DHT22;16877;48.810;9.282;2024-03-02T00:23:06;16.80;65.00
1367;DHT22;16877;48.810;9.282;2024-03-02T00:25:40;16.90;65.50
1367;DHT22;16877;48.810;9.282;2024-03-02T00:28:14;17.00;65.40
1367;DHT22;16877;48.810;9.282;2024-03-02T00:30:55;17.10;65.10
1367;DHT22;16877;48.810;9.282;2024-03-02T00:33:23;17.20;65.50
1367;DHT22;16877;48.810;9.282;2024-03-02T00:35:52;17.10;65.30
1367;DHT22;16877;48.810;9.282;2024-03-02T00:38:19;17.20;65.70
1367;DHT22;16877;48.810;9.282;2024-03-02T00:40:46;17.20;65.40
1367;DHT22;16877;48.810;9.282;2024-03-02T00:43:41;17.00;65.60
1367;DHT22;16877;48.810;9.282;2024-03-02T00:46:10;17.20;65.50
1367;DHT22;16877;48.810;9.282;2024-03-02T00:48:37;17.20;66.10
1367;DHT22;16877;48.810;9.282;2024-03-02T00:51:05;17.00;65.00
1367;DHT22;16877;48.810;9.282;2024-03-02T00:53:32;17.20;65.50
1367;DHT22;16877;48.810;9.282;2024-03-02T00:55:59;16.90;65.20
1367;DHT22;16877;48.810;9.282;2024-03-02T00:58:26;17.20;65.20
1367;DHT22;16877;48.810;9.282;2024-03-02T01:00:52;17.10;64.10
1367;DHT22;16877;48.810;9.282;2024-03-02T01:03:19;17.30;64.60
1367;DHT22;16877;48.810;9.282;2024-03-02T01:05:46;17.00;64.60
1367;DHT22;16877;48.810;9.282;2024-03-02T01:08:14;17.10;64.80
1367;DHT22;16877;48.810;9.282;2024-03-02T01:10:41;17.20;64.40
1367;DHT22;16877;48.810;9.282;2024-03-02T01:13:07;17.10;64.20
1367;DHT22;16877;48.810;9.282;2024-03-02T01:15:34;17.10;64.00
1367;DHT22;16877;48.810;9.282;2024-03-02T01:18:01;17.10;64.10
1367;DHT22;16877;48.810;9.282;2024-03-02T01:20:28;17.00;63.30
1367;DHT22;16877;48.810;9.282;2024-03-02T01:22:55;17.20;64.40
1367;DHT22;16877;48.810;9.282;2024-03-02T01:25:23;17.10;64.00
1367;DHT22;16877;48.810;9.282;2024-03-02T01:27:50;17.00;63.60
1367;DHT22;16877;48.810;9.282;2024-03-02T01:30:17;17.00;64.10
1367;DHT22;16877;48.810;9.282;2024-03-02T01:32:43;17.20;64.50
1367;DHT22;16877;48.810;9.282;2024-03-02T01:35:10;17.10;65.00
1367;DHT22;16877;48.810;9.282;2024-03-02T01:37:37;17.10;63.90
1367;DHT22;16877;48.810;9.282;2024-03-02T01:40:05;17.00;64.00
1367;DHT22;16877;48.810;9.282;2024-03-02T01:42:36;17.20;65.20
1367;DHT22;16877;48.810;9.282;2024-03-02T01:45:04;17.10;64.80
1367;DHT22;16877;48.810;9.282;2024-03-02T01:47:31;17.00;64.70
1367;DHT22;16877;48.810;9.282;2024-03-02T01:49:59;16.90;64.50
1367;DHT22;16877;48.810;9.282;2024-03-02T01:52:26;17.30;64.70
1367;DHT22;16877;48.810;9.282;2024-03-02T01:54:52;17.00;64.30
1367;DHT22;16877;48.810;9.282;2024-03-02T01:57:19;17.10;64.10
1367;DHT22;16877;48.810;9.282;2024-03-02T01:59:47;17.00;63.50
1367;DHT22;16877;48.810;9.282;2024-03-02T02:02:16;16.90;63.30
1367;DHT22;16877;48.810;9.282;2024-03-02T02:04:42;17.10;63.80
1367;DHT22;16877;48.810;9.282;2024-03-02T02:07:10;17.00;63.80
1367;DHT22;16877;48.810;9.282;2024-03-02T02:09:36;17.00;63.60
1367;DHT22;16877;48.810;9.282;2024-03-02T02:12:04;16.90;63.50
1367;DHT22;16877;48.810;9.282;2024-03-02T02:14:32;17.10;63.50
1367;DHT22;16877;48.810;9.282;2024-03-02T02:17:00;16.90;63.10
1367;DHT22;16877;48.810;9.282;2024-03-02T02:19:26;17.00;63.20
1367;DHT22;16877;48.810;9.282;2024-03-02T02:21:55;17.00;62.80
1367;DHT22;16877;48.810;9.282;2024-03-02T02:24:21;17.20;63.00
1367;DHT22;16877;48.810;9.282;2024-03-02T02:26:48;16.90;62.40
1367;DHT22;16877;48.810;9.282;2024-03-02T02:29:15;17.00;62.50
1367;DHT22;16877;48.810;9.282;2024-03-02T02:31:42;16.90;62.50
1367;DHT22;16877;48.810;9.282;2024-03-02T02:34:08;16.70;62.30
1367;DHT22;16877;48.810;9.282;2024-03-02T02:36:38;16.90;62.50
1367;DHT22;16877;48.810;9.282;2024-03-02T02:39:09;17.10;62.70
1367;DHT22;16877;48.810;9.282;2024-03-02T02:41:37;16.80;62.20
1367;DHT22;16877;48.810;9.282;2024-03-02T02:44:04;16.80;62.20
1367;DHT22;16877;48.810;9.282;2024-03-02T02:46:31;17.00;62.50
1367;DHT22;16877;48.810;9.282;2024-03-02T02:48:57;16.80;62.40
1367;DHT22;16877;48.810;9.282;2024-03-02T02:51:24;16.70;62.30
1367;DHT22;16877;48.810;9.282;2024-03-02T02:53:51;16.70;62.60
1367;DHT22;16877;48.810;9.282;2024-03-02T02:56:19;16.70;62.50
1367;DHT22;16877;48.810;9.282;2024-03-02T02:58:46;16.70;62.60
1367;DHT22;16877;48.810;9.282;2024-03-02T03:01:13;16.50;62.40
1367;DHT22;16877;48.810;9.282;2024-03-02T03:03:39;16.40;62.20
1367;DHT22;16877;48.810;9.282;2024-03-02T03:06:06;16.60;62.30
1367;DHT22;16877;48.810;9.282;2024-03-02T03:08:33;16.60;62.50
1367;DHT22;16877;48.810;9.282;2024-03-02T03:11:00;16.50;62.30
1367;DHT22;16877;48.810;9.282;2024-03-02T03:13:28;16.30;62.30
1367;DHT22;16877;48.810;9.282;2024-03-02T03:15:54;16.50;62.50
1367;DHT22;16877;48.810;9.282;2024-03-02T03:18:21;16.50;62.60
1367;DHT22;16877;48.810;9.282;2024-03-02T03:20:48;16.50;62.60
1367;DHT22;16877;48.810;9.282;2024-03-02T03:23:15;16.50;62.70
1367;DHT22;16877;48.810;9.282;2024-03-02T03:25:42;16.50;62.50
1367;DHT22;16877;48.810;9.282;2024-03-02T03:28:09;16.60;62.90
1367;DHT22;16877;48.810;9.282;2024-03-02T03:30:37;16.30;62.50
1367;DHT22;16877;48.810;9.282;2024-03-02T03:33:05;16.40;62.70
1367;DHT22;16877;48.810;9.282;2024-03-02T03:35:32;16.50;63.00
1367;DHT22;16877;48.810;9.282;2024-03-02T03:37:58;16.30;62.70
1367;DHT22;16877;48.810;9.282;2024-03-02T03:40:25;16.70;63.00
1367;DHT22;16877;48.810;9.282;2024-03-02T03:42:52;16.40;62.60
1367;DHT22;16877;48.810;9.282;2024-03-02T03:45:19;16.70;62.90
1367;DHT22;16877;48.810;9.282;2024-03-02T03:47:47;16.20;62.30
1367;DHT22;16877;48.810;9.282;2024-03-02T03:50:14;16.40;62.20
1367;DHT22;16877;48.810;9.282;2024-03-02T03:52:41;16.50;62.20
1367;DHT22;16877;48.810;9.282;2024-03-02T03:55:09;16.40;62.10
1367;DHT22;16877;48.810;9.282;2024-03-02T03:57:35;16.50;62.00
1367;DHT22;16877;48.810;9.282;2024-03-02T04:00:03;16.30;61.30
1367;DHT22;16877;48.810;9.282;2024-03-02T04:02:30;16.30;62.20
1367;DHT22;16877;48.810;9.282;2024-03-02T04:04:58;16.30;62.00
1367;DHT22;16877;48.810;9.282;2024-03-02T04:07:24;16.40;62.20
1367;DHT22;16877;48.810;9.282;2024-03-02T04:09:51;16.20;62.00
1367;DHT22;16877;48.810;9.282;2024-03-02T04:12:17;16.50;62.30
1367;DHT22;16877;48.810;9.282;2024-03-02T04:14:44;16.30;61.30
1367;DHT22;16877;48.810;9.282;2024-03-02T04:17:11;16.10;61.40
1367;DHT22;16877;48.810;9.282;2024-03-02T04:19:38;16.10;61.90
1367;DHT22;16877;48.810;9.282;2024-03-02T04:22:06;16.30;61.90
1367;DHT22;16877;48.810;9.282;2024-03-02T04:24:33;16.30;61.80
1367;DHT22;16877;48.810;9.282;2024-03-02T04:27:00;16.20;61.80
1367;DHT22;16877;48.810;9.282;2024-03-02T04:29:25;16.20;61.60
1367;DHT22;16877;48.810;9.282;2024-03-02T04:31:52;16.20;62.00
1367;DHT22;16877;48.810;9.282;2024-03-02T04:34:19;16.20;62.00
1367;DHT22;16877;48.810;9.282;2024-03-02T04:36:45;16.30;62.10
1367;DHT22;16877;48.810;9.282;2024-03-02T04:39:13;16.00;61.50
1367;DHT22;16877;48.810;9.282;2024-03-02T04:41:40;16.10;62.10
1367;DHT22;16877;48.810;9.282;2024-03-02T04:44:06;16.20;62.50
1367;DHT22;16877;48.810;9.282;2024-03-02T04:46:34;16.30;62.90
1367;DHT22;16877;48.810;9.282;2024-03-02T04:49:00;16.20;63.50
1367;DHT22;16877;48.810;9.282;2024-03-02T04:51:27;16.10;63.10
1367;DHT22;16877;48.810;9.282;2024-03-02T04:53:54;16.10;63.30
1367;DHT22;16877;48.810;9.282;2024-03-02T04:56:21;16.10;64.10
1367;DHT22;16877;48.810;9.282;2024-03-02T04:59:09;16.00;64.40
1367;DHT22;16877;48.810;9.282;2024-03-02T05:01:36;15.90;64.10
1367;DHT22;16877;48.810;9.282;2024-03-02T05:04:03;16.40;64.70
1367;DHT22;16877;48.810;9.282;2024-03-02T05:06:30;16.10;64.00
1367;DHT22;16877;48.810;9.282;2024-03-02T05:08:57;16.10;64.60
1367;DHT22;16877;48.810;9.282;2024-03-02T05:11:25;16.00;64.70
1367;DHT22;16877;48.810;9.282;2024-03-02T05:14:09;16.10;64.60
1367;DHT22;16877;48.810;9.282;2024-03-02T05:16:36;16.20;64.30
1367;DHT22;16877;48.810;9.282;2024-03-02T05:19:04;16.00;64.00
1367;DHT22;16877;48.810;9.282;2024-03-02T05:21:32;15.90;64.00
1367;DHT22;16877;48.810;9.282;2024-03-02T05:23:58;15.90;64.00
1367;DHT22;16877;48.810;9.282;2024-03-02T05:26:26;16.00;64.60
1367;DHT22;16877;48.810;9.282;2024-03-02T05:28:53;16.00;64.90
1367;DHT22;16877;48.810;9.282;2024-03-02T05:31:20;16.00;64.80
1367;DHT22;16877;48.810;9.282;2024-03-02T05:33:46;16.00;64.80
1367;DHT22;16877;48.810;9.282;2024-03-02T05:36:13;15.90;64.80
1367;DHT22;16877;48.810;9.282;2024-03-02T05:38:40;15.90;64.80
1367;DHT22;16877;48.810;9.282;2024-03-02T05:41:06;15.90;64.60
1367;DHT22;16877;48.810;9.282;2024-03-02T05:43:34;16.00;64.60
1367;DHT22;16877;48.810;9.282;2024-03-02T05:46:01;16.00;64.70
1367;DHT22;16877;48.810;9.282;2024-03-02T05:48:28;16.00;64.80
1367;DHT22;16877;48.810;9.282;2024-03-02T05:50:55;15.90;64.40
1367;DHT22;16877;48.810;9.282;2024-03-02T05:53:22;15.90;64.40
1367;DHT22;16877;48.810;9.282;2024-03-02T05:55:48;15.90;64.10
1367;DHT22;16877;48.810;9.282;2024-03-02T05:58:18;15.80;64.00
1367;DHT22;16877;48.810;9.282;2024-03-02T06:00:58;15.80;64.10
1367;DHT22;16877;48.810;9.282;2024-03-02T06:03:24;16.00;64.20
1367;DHT22;16877;48.810;9.282;2024-03-02T06:05:51;16.00;64.00
1367;DHT22;16877;48.810;9.282;2024-03-02T06:08:18;16.00;64.20
1367;DHT22;16877;48.810;9.282;2024-03-02T06:10:44;16.00;64.00
1367;DHT22;16877;48.810;9.282;2024-03-02T06:13:11;15.90;63.80
1367;DHT22;16877;48.810;9.282;2024-03-02T06:15:38;16.00;64.00
1367;DHT22;16877;48.810;9.282;2024-03-02T06:18:06;16.00;64.10
1367;DHT22;16877;48.810;9.282;2024-03-02T06:20:33;15.90;64.10
1367;DHT22;16877;48.810;9.282;2024-03-02T06:23:00;16.00;64.40
1367;DHT22;16877;48.810;9.282;2024-03-02T06:25:27;16.10;64.40
1367;DHT22;16877;48.810;9.282;2024-03-02T06:27:53;16.00;64.20
1367;DHT22;16877;48.810;9.282;2024-03-02T06:30:20;16.00;64.20
1367;DHT22;16877;48.810;9.282;2024-03-02T06:32:47;16.10;64.30
1367;DHT22;16877;48.810;9.282;2024-03-02T06:35:15;16.00;64.20
1367;DHT22;16877;48.810;9.282;2024-03-02T06:37:41;15.90;64.10
1367;DHT22;16877;48.810;9.282;2024-03-02T06:40:09;15.90;64.00
1367;DHT22;16877;48.810;9.282;2024-03-02T06:42:36;16.00;64.20
1367;DHT22;16877;48.810;9.282;2024-03-02T06:45:03;15.80;64.00
1367;DHT22;16877;48.810;9.282;2024-03-02T06:47:30;15.80;64.10
1367;DHT22;16877;48.810;9.282;2024-03-02T06:49:56;16.00;64.30
1367;DHT22;16877;48.810;9.282;2024-03-02T06:52:25;16.00;64.10
1367;DHT22;16877;48.810;9.282;2024-03-02T06:54:52;16.20;64.50
1367;DHT22;16877;48.810;9.282;2024-03-02T06:57:18;15.90;64.10
1367;DHT22;16877;48.810;9.282;2024-03-02T06:59:46;16.20;64.40
1367;DHT22;16877;48.810;9.282;2024-03-02T07:02:14;16.20;64.50
1367;DHT22;16877;48.810;9.282;2024-03-02T07:04:40;16.20;64.30
1367;DHT22;16877;48.810;9.282;2024-03-02T07:07:07;16.10;64.10
1367;DHT22;16877;48.810;9.282;2024-03-02T07:09:35;16.30;64.20
1367;DHT22;16877;48.810;9.282;2024-03-02T07:12:02;16.40;64.40
1367;DHT22;16877;48.810;9.282;2024-03-02T07:14:29;16.30;64.40
1367;DHT22;16877;48.810;9.282;2024-03-02T07:17:09;17.20;80.00
1367;DHT22;16877;48.810;9.282;2024-03-02T07:19:37;18.30;79.00
1367;DHT22;16877;48.810;9.282;2024-03-02T07:22:06;18.60;76.40
1367;DHT22;16877;48.810;9.282;2024-03-02T07:24:32;19.10;74.00
1367;DHT22;16877;48.810;9.282;2024-03-02T07:27:00;19.70;71.80
1367;DHT22;16877;48.810;9.282;2024-03-02T07:29:27;19.90;70.00
1367;DHT22;16877;48.810;9.282;2024-03-02T07:31:54;20.50;69.20
1367;DHT22;16877;48.810;9.282;2024-03-02T07:34:20;20.80;67.90
1367;DHT22;16877;48.810;9.282;2024-03-02T07:36:47;21.00;66.70
1367;DHT22;16877;48.810;9.282;2024-03-02T07:39:14;21.60;66.30
1367;DHT22;16877;48.810;9.282;2024-03-02T07:41:41;21.70;66.10
1367;DHT22;16877;48.810;9.282;2024-03-02T07:44:10;21.70;65.30
1367;DHT22;16877;48.810;9.282;2024-03-02T07:46:40;22.20;65.00
1367;DHT22;16877;48.810;9.282;2024-03-02T07:49:06;22.40;64.20
1367;DHT22;16877;48.810;9.282;2024-03-02T07:51:33;22.50;63.70
1367;DHT22;16877;48.810;9.282;2024-03-02T07:54:00;22.50;63.30
1367;DHT22;16877;48.810;9.282;2024-03-02T07:56:26;22.80;63.40
1367;DHT22;16877;48.810;9.282;2024-03-02T07:58:53;23.00;64.10
1367;DHT22;16877;48.810;9.282;2024-03-02T08:01:24;22.70;63.20
1367;DHT22;16877;48.810;9.282;2024-03-02T08:03:50;23.10;63.50
1367;DHT22;16877;48.810;9.282;2024-03-02T08:06:18;23.00;63.20
1367;DHT22;16877;48.810;9.282;2024-03-02T08:08:46;23.30;62.70
1367;DHT22;16877;48.810;9.282;2024-03-02T08:11:13;23.00;63.10
1367;DHT22;16877;48.810;9.282;2024-03-02T08:13:40;23.30;62.90
1367;DHT22;16877;48.810;9.282;2024-03-02T08:16:06;23.10;62.90
1367;DHT22;16877;48.810;9.282;2024-03-02T08:18:36;23.60;63.60
1367;DHT22;16877;48.810;9.282;2024-03-02T08:21:03;23.40;62.90
1367;DHT22;16877;48.810;9.282;2024-03-02T08:23:30;23.50;62.40
1367;DHT22;16877;48.810;9.282;2024-03-02T08:25:57;23.20;62.00
1367;DHT22;16877;48.810;9.282;2024-03-02T08:28:24;23.40;60.50
1367;DHT22;16877;48.810;9.282;2024-03-02T08:30:51;23.10;60.60
1367;DHT22;16877;48.810;9.282;2024-03-02T08:33:17;22.90;59.50
1367;DHT22;16877;48.810;9.282;2024-03-02T08:35:45;22.60;59.20
1367;DHT22;16877;48.810;9.282;2024-03-02T08:38:12;22.40;59.30
1367;DHT22;16877;48.810;9.282;2024-03-02T08:40:39;22.50;59.60
1367;DHT22;16877;48.810;9.282;2024-03-02T08:43:06;22.30;58.90
1367;DHT22;16877;48.810;9.282;2024-03-02T08:45:33;22.10;58.70
1367;DHT22;16877;48.810;9.282;2024-03-02T08:48:01;22.20;58.80
1367;DHT22;16877;48.810;9.282;2024-03-02T08:50:27;22.50;59.10
1367;DHT22;16877;48.810;9.282;2024-03-02T08:52:55;22.10;58.70
1367;DHT22;16877;48.810;9.282;2024-03-02T08:55:22;22.40;58.80
1367;DHT22;16877;48.810;9.282;2024-03-02T08:57:49;22.40;58.20
1367;DHT22;16877;48.810;9.282;2024-03-02T09:00:16;22.30;58.50
1367;DHT22;16877;48.810;9.282;2024-03-02T09:02:44;22.50;58.60
1367;DHT22;16877;48.810;9.282;2024-03-02T09:05:11;22.50;58.60
1367;DHT22;16877;48.810;9.282;2024-03-02T09:07:38;22.90;58.90
1367;DHT22;16877;48.810;9.282;2024-03-02T09:10:07;22.90;58.50
1367;DHT22;16877;48.810;9.282;2024-03-02T09:12:34;23.50;58.80
1367;DHT22;16877;48.810;9.282;2024-03-02T09:15:02;23.40;58.30
1367;DHT22;16877;48.810;9.282;2024-03-02T09:17:29;24.00;58.60
1367;DHT22;16877;48.810;9.282;2024-03-02T09:19:56;24.20;58.40
1367;DHT22;16877;48.810;9.282;2024-03-02T09:22:22;24.60;58.10
1367;DHT22;16877;48.810;9.282;2024-03-02T09:24:49;24.80;57.80
1367;DHT22;16877;48.810;9.282;2024-03-02T09:27:17;25.00;57.60
1367;DHT22;16877;48.810;9.282;2024-03-02T09:29:44;25.20;57.30
1367;DHT22;16877;48.810;9.282;2024-03-02T09:32:12;25.50;57.00
1367;DHT22;16877;48.810;9.282;2024-03-02T09:34:39;25.60;56.80
1367;DHT22;16877;48.810;9.282;2024-03-02T09:37:06;26.10;56.70
1367;DHT22;16877;48.810;9.282;2024-03-02T09:39:33;26.10;55.90
1367;DHT22;16877;48.810;9.282;2024-03-02T09:42:00;26.40;55.50
1367;DHT22;16877;48.810;9.282;2024-03-02T09:44:29;26.90;55.10
1367;DHT22;16877;48.810;9.282;2024-03-02T09:46:56;27.10;55.30
1367;DHT22;16877;48.810;9.282;2024-03-02T09:49:23;27.30;55.10
1367;DHT22;16877;48.810;9.282;2024-03-02T09:51:50;27.60;55.50
1367;DHT22;16877;48.810;9.282;2024-03-02T09:54:16;27.70;54.70
1367;DHT22;16877;48.810;9.282;2024-03-02T09:56:44;28.10;55.00
1367;DHT22;16877;48.810;9.282;2024-03-02T09:59:10;28.30;54.80
1367;DHT22;16877;48.810;9.282;2024-03-02T10:01:40;28.50;55.20
1367;DHT22;16877;48.810;9.282;2024-03-02T10:04:21;28.80;55.50
1367;DHT22;16877;48.810;9.282;2024-03-02T10:06:48;29.10;56.20
1367;DHT22;16877;48.810;9.282;2024-03-02T10:09:27;29.30;56.70
1367;DHT22;16877;48.810;9.282;2024-03-02T10:12:03;29.90;57.00
1367;DHT22;16877;48.810;9.282;2024-03-02T10:14:30;30.00;57.00
1367;DHT22;16877;48.810;9.282;2024-03-02T10:17:02;30.20;57.20
1367;DHT22;16877;48.810;9.282;2024-03-02T10:19:30;30.70;57.90
1367;DHT22;16877;48.810;9.282;2024-03-02T10:21:59;31.10;57.70
1367;DHT22;16877;48.810;9.282;2024-03-02T10:24:26;31.10;57.60
1367;DHT22;16877;48.810;9.282;2024-03-02T10:26:52;31.30;57.70
1367;DHT22;16877;48.810;9.282;2024-03-02T10:29:19;31.40;57.00
1367;DHT22;16877;48.810;9.282;2024-03-02T10:31:47;31.80;56.90
1367;DHT22;16877;48.810;9.282;2024-03-02T10:34:15;32.30;56.60
1367;DHT22;16877;48.810;9.282;2024-03-02T10:36:43;32.20;56.30
1367;DHT22;16877;48.810;9.282;2024-03-02T10:39:12;32.70;56.10
1367;DHT22;16877;48.810;9.282;2024-03-02T10:41:40;32.90;55.80
1367;DHT22;16877;48.810;9.282;2024-03-02T10:44:08;33.10;55.40
1367;DHT22;16877;48.810;9.282;2024-03-02T10:46:37;33.40;55.00
1367;DHT22;16877;48.810;9.282;2024-03-02T10:49:04;33.60;54.80
1367;DHT22;16877;48.810;9.282;2024-03-02T10:51:33;33.80;52.20
1367;DHT22;16877;48.810;9.282;2024-03-02T10:54:02;33.80;48.50
1367;DHT22;16877;48.810;9.282;2024-03-02T10:56:30;34.20;49.30
1367;DHT22;16877;48.810;9.282;2024-03-02T10:59:02;34.20;49.80
1367;DHT22;16877;48.810;9.282;2024-03-02T11:01:31;34.50;49.80
1367;DHT22;16877;48.810;9.282;2024-03-02T11:03:59;34.70;49.30
1367;DHT22;16877;48.810;9.282;2024-03-02T11:06:28;34.70;49.20
1367;DHT22;16877;48.810;9.282;2024-03-02T11:09:00;35.10;49.00
1367;DHT22;16877;48.810;9.282;2024-03-02T11:11:30;35.30;48.90
1367;DHT22;16877;48.810;9.282;2024-03-02T11:14:01;35.00;46.40
1367;DHT22;16877;48.810;9.282;2024-03-02T11:16:35;34.40;46.70
1367;DHT22;16877;48.810;9.282;2024-03-02T11:19:05;34.10;46.70
1367;DHT22;16877;48.810;9.282;2024-03-02T11:21:33;33.80;47.00
1367;DHT22;16877;48.810;9.282;2024-03-02T11:24:28;33.50;47.20
1367;DHT22;16877;48.810;9.282;2024-03-02T11:26:58;33.40;47.50
1367;DHT22;16877;48.810;9.282;2024-03-02T11:29:43;33.40;47.60
1367;DHT22;16877;48.810;9.282;2024-03-02T11:32:17;33.20;47.50
1367;DHT22;16877;48.810;9.282;2024-03-02T11:34:46;32.90;47.30
1367;DHT22;16877;48.810;9.282;2024-03-02T11:37:13;32.90;47.40
1367;DHT22;16877;48.810;9.282;2024-03-02T11:39:42;32.80;47.60
1367;DHT22;16877;48.810;9.282;2024-03-02T11:42:09;32.70;47.60
1367;DHT22;16877;48.810;9.282;2024-03-02T11:44:38;32.80;48.20
1367;DHT22;16877;48.810;9.282;2024-03-02T11:47:07;32.90;47.80
1367;DHT22;16877;48.810;9.282;2024-03-02T11:49:37;32.80;48.50
1367;DHT22;16877;48.810;9.282;2024-03-02T11:52:06;32.80;48.30
1367;DHT22;16877;48.810;9.282;2024-03-02T11:54:33;32.70;48.20
1367;DHT22;16877;48.810;9.282;2024-03-02T11:57:03;32.80;48.40
1367;DHT22;16877;48.810;9.282;2024-03-02T11:59:30;32.90;48.50
1367;DHT22;16877;48.810;9.282;2024-03-02T12:01:57;32.80;48.50
1367;DHT22;16877;48.810;9.282;2024-03-02T12:04:25;33.00;48.30
1367;DHT22;16877;48.810;9.282;2024-03-02T12:06:54;32.80;48.10
1367;DHT22;16877;48.810;9.282;2024-03-02T12:09:22;32.80;47.60
1367;DHT22;16877;48.810;9.282;2024-03-02T12:12:02;32.70;48.60
1367;DHT22;16877;48.810;9.282;2024-03-02T12:14:30;32.50;48.10
1367;DHT22;16877;48.810;9.282;2024-03-02T12:16:57;32.10;48.60
1367;DHT22;16877;48.810;9.282;2024-03-02T12:19:24;32.00;48.90
1367;DHT22;16877;48.810;9.282;2024-03-02T12:21:51;32.00;48.60
1367;DHT22;16877;48.810;9.282;2024-03-02T12:24:17;32.10;48.50
1367;DHT22;16877;48.810;9.282;2024-03-02T12:26:44;32.10;48.50
1367;DHT22;16877;48.810;9.282;2024-03-02T12:29:14;32.20;47.80
1367;DHT22;16877;48.810;9.282;2024-03-02T12:31:42;32.50;47.90
1367;DHT22;16877;48.810;9.282;2024-03-02T12:34:12;32.20;47.80
1367;DHT22;16877;48.810;9.282;2024-03-02T12:36:39;32.20;48.40
1367;DHT22;16877;48.810;9.282;2024-03-02T12:39:07;32.10;47.60
1367;DHT22;16877;48.810;9.282;2024-03-02T12:41:35;32.00;47.60
1367;DHT22;16877;48.810;9.282;2024-03-02T12:44:02;32.20;47.50
1367;DHT22;16877;48.810;9.282;2024-03-02T12:46:30;32.20;48.10
1367;DHT22;16877;48.810;9.282;2024-03-02T12:48:57;32.70;48.50
1367;DHT22;16877;48.810;9.282;2024-03-02T12:51:24;33.00;48.60
1367;DHT22;16877;48.810;9.282;2024-03-02T12:53:53;32.80;48.20
1367;DHT22;16877;48.810;9.282;2024-03-02T12:56:20;32.70;48.40
1367;DHT22;16877;48.810;9.282;2024-03-02T12:58:47;32.90;48.40
1367;DHT22;16877;48.810;9.282;2024-03-02T13:01:15;32.90;47.90
1367;DHT22;16877;48.810;9.282;2024-03-02T13:03:48;33.00;48.00
1367;DHT22;16877;48.810;9.282;2024-03-02T13:06:16;33.00;48.10
1367;DHT22;16877;48.810;9.282;2024-03-02T13:08:45;33.10;48.30
1367;DHT22;16877;48.810;9.282;2024-03-02T13:11:12;33.20;47.40
1367;DHT22;16877;48.810;9.282;2024-03-02T13:13:39;33.10;46.90
1367;DHT22;16877;48.810;9.282;2024-03-02T13:16:08;33.20;47.00
1367;DHT22;16877;48.810;9.282;2024-03-02T13:18:35;33.30;47.40
1367;DHT22;16877;48.810;9.282;2024-03-02T13:21:04;33.60;47.50
1367;DHT22;16877;48.810;9.282;2024-03-02T13:23:30;33.50;47.80
1367;DHT22;16877;48.810;9.282;2024-03-02T13:25:57;33.60;47.20
1367;DHT22;16877;48.810;9.282;2024-03-02T13:28:24;34.00;47.20
1367;DHT22;16877;48.810;9.282;2024-03-02T13:30:51;33.70;47.20
1367;DHT22;16877;48.810;9.282;2024-03-02T13:33:18;33.80;46.90
1367;DHT22;16877;48.810;9.282;2024-03-02T13:35:48;33.70;46.60
1367;DHT22;16877;48.810;9.282;2024-03-02T13:38:16;34.00;47.00
1367;DHT22;16877;48.810;9.282;2024-03-02T13:40:43;34.10;46.90
1367;DHT22;16877;48.810;9.282;2024-03-02T13:43:10;34.10;46.50
1367;DHT22;16877;48.810;9.282;2024-03-02T13:45:37;34.10;46.70
1367;DHT22;16877;48.810;9.282;2024-03-02T13:48:05;33.80;47.10
1367;DHT22;16877;48.810;9.282;2024-03-02T13:50:32;33.90;47.00
1367;DHT22;16877;48.810;9.282;2024-03-02T13:52:59;34.10;45.90
1367;DHT22;16877;48.810;9.282;2024-03-02T13:55:27;34.10;46.70
1367;DHT22;16877;48.810;9.282;2024-03-02T13:57:53;34.00;46.60
1367;DHT22;16877;48.810;9.282;2024-03-02T14:00:20;34.10;46.50
1367;DHT22;16877;48.810;9.282;2024-03-02T14:02:47;34.40;46.50
1367;DHT22;16877;48.810;9.282;2024-03-02T14:05:15;34.60;46.00
1367;DHT22;16877;48.810;9.282;2024-03-02T14:07:42;34.20;46.20
1367;DHT22;16877;48.810;9.282;2024-03-02T14:10:09;34.40;46.40
1367;DHT22;16877;48.810;9.282;2024-03-02T14:12:37;34.50;46.40
1367;DHT22;16877;48.810;9.282;2024-03-02T14:15:05;34.60;46.20
1367;DHT22;16877;48.810;9.282;2024-03-02T14:17:32;34.50;45.50
1367;DHT22;16877;48.810;9.282;2024-03-02T14:19:58;34.60;45.80
1367;DHT22;16877;48.810;9.282;2024-03-02T14:22:25;34.50;45.80
1367;DHT22;16877;48.810;9.282;2024-03-02T14:24:52;34.40;45.90
1367;DHT22;16877;48.810;9.282;2024-03-02T14:27:18;34.40;44.10
1367;DHT22;16877;48.810;9.282;2024-03-02T14:29:45;34.20;43.70
1367;DHT22;16877;48.810;9.282;2024-03-02T14:32:12;34.00;43.50
1367;DHT22;16877;48.810;9.282;2024-03-02T14:34:39;33.70;43.50
1367;DHT22;16877;48.810;9.282;2024-03-02T14:37:06;33.60;43.70
1367;DHT22;16877;48.810;9.282;2024-03-02T14:39:32;33.50;43.40
1367;DHT22;16877;48.810;9.282;2024-03-02T14:42:00;33.30;43.30
1367;DHT22;16877;48.810;9.282;2024-03-02T14:44:26;33.40;43.50
1367;DHT22;16877;48.810;9.282;2024-03-02T14:46:54;33.30;43.70
1367;DHT22;16877;48.810;9.282;2024-03-02T14:49:23;33.20;43.30
1367;DHT22;16877;48.810;9.282;2024-03-02T14:51:50;33.20;43.40
1367;DHT22;16877;48.810;9.282;2024-03-02T14:54:17;32.80;43.40
1367;DHT22;16877;48.810;9.282;2024-03-02T14:56:43;32.60;43.50
1367;DHT22;16877;48.810;9.282;2024-03-02T14:59:10;32.30;43.90
1367;DHT22;16877;48.810;9.282;2024-03-02T15:01:37;32.50;44.70
1367;DHT22;16877;48.810;9.282;2024-03-02T15:04:05;32.00;44.30
1367;DHT22;16877;48.810;9.282;2024-03-02T15:06:32;31.80;43.90
1367;DHT22;16877;48.810;9.282;2024-03-02T15:08:59;31.80;44.20
1367;DHT22;16877;48.810;9.282;2024-03-02T15:11:27;31.80;46.20
1367;DHT22;16877;48.810;9.282;2024-03-02T15:13:53;32.00;45.40
1367;DHT22;16877;48.810;9.282;2024-03-02T15:16:20;31.70;45.10
1367;DHT22;16877;48.810;9.282;2024-03-02T15:18:47;31.90;44.90
1367;DHT22;16877;48.810;9.282;2024-03-02T15:21:15;31.70;43.90
1367;DHT22;16877;48.810;9.282;2024-03-02T15:23:41;31.70;43.80
1367;DHT22;16877;48.810;9.282;2024-03-02T15:26:08;31.70;44.10
1367;DHT22;16877;48.810;9.282;2024-03-02T15:28:35;31.20;44.40
1367;DHT22;16877;48.810;9.282;2024-03-02T15:31:01;31.30;44.60
1367;DHT22;16877;48.810;9.282;2024-03-02T15:33:29;30.70;44.10
1367;DHT22;16877;48.810;9.282;2024-03-02T15:35:58;30.10;45.20
1367;DHT22;16877;48.810;9.282;2024-03-02T15:38:26;29.50;44.80
1367;DHT22;16877;48.810;9.282;2024-03-02T15:40:52;29.30;45.20
1367;DHT22;16877;48.810;9.282;2024-03-02T15:43:19;28.90;45.70
1367;DHT22;16877;48.810;9.282;2024-03-02T15:45:46;28.70;46.20
1367;DHT22;16877;48.810;9.282;2024-03-02T15:48:12;28.80;46.80